KJZI

Charleston Executive Airport

Charleston, South Carolina, USA
METAR KJZI 151315Z AUTO 00000KT 10SM CLR 07/06 A3002 RMK AO2
Observed Flight Rules
Dec-15 @ 13:15 UTC (35 minutes ago) Visual Flight Rules
Wind Visibility Clouds
Calm 10 miles
  • Clear skies
Temperatures Readings
Current 7°C / 45°F
Dewpoint 6°C / 43°F
Humidity 93%
Altimeter 30.02" Hg
Pressure 1017 hPa
Elevation 6
METAR KJZI 151315Z AUTO 00000KT 10SM CLR 07/06 A3002 RMK AO2
Observed Flight Rules
Dec-15 @ 13:15 UTC
(35 minutes ago)
VFR
Wind Visibility
Calm 10 miles
Clouds
  • Clear skies
Temperature Dewpoint
7°C / 45°F 6°C / 43°F
Humidity Altimeter Pressure
93% 30.02" Hg 1017 hPa